createdAt,value
2022-08-09T00:02:28.138Z,5.30
2022-08-09T00:07:29.824Z,5.15
2022-08-09T00:12:45.724Z,9.48
2022-08-09T00:18:05.759Z,5.20
2022-08-09T00:23:53.773Z,6.35
2022-08-09T00:28:30.230Z,4.68
2022-08-09T00:33:32.812Z,5.63
2022-08-09T00:38:52.294Z,6.05
2022-08-09T00:44:24.719Z,6.45
2022-08-09T00:49:16.287Z,5.25
2022-08-09T00:54:19.117Z,6.38
2022-08-09T00:59:40.517Z,5.32
2022-08-09T01:04:54.837Z,4.78
2022-08-09T01:10:02.786Z,6.50
2022-08-09T01:15:04.239Z,6.15
2022-08-09T01:20:21.039Z,4.40
2022-08-09T01:25:24.964Z,6.10
2022-08-09T01:30:28.682Z,4.80
2022-08-09T01:35:42.284Z,5.03
2022-08-09T01:40:52.322Z,6.32
2022-08-09T01:45:57.971Z,4.97
2022-08-09T01:51:00.057Z,7.05
2022-08-09T01:56:04.922Z,5.47
2022-08-09T02:01:07.895Z,5.97
2022-08-09T02:06:10.307Z,7.43
2022-08-09T02:11:17.084Z,5.80
2022-08-09T02:16:19.083Z,6.20
2022-08-09T02:21:39.499Z,8.02
2022-08-09T02:26:42.829Z,6.35
2022-08-09T02:31:45.337Z,6.32
2022-08-09T02:36:49.287Z,5.88
2022-08-09T02:41:57.560Z,5.28
2022-08-09T02:47:09.881Z,7.88
2022-08-09T02:52:13.050Z,6.70
2022-08-09T02:57:23.065Z,7.25
2022-08-09T03:02:25.738Z,8.38
2022-08-09T03:07:29.208Z,6.47
2022-08-09T03:12:31.432Z,7.15
2022-08-09T03:17:33.590Z,5.40
2022-08-09T03:22:41.781Z,5.05
2022-08-09T03:27:47.431Z,6.93
2022-08-09T03:32:49.982Z,4.43
2022-08-09T03:37:55.959Z,7.25
2022-08-09T03:42:59.835Z,6.10
2022-08-09T03:48:01.325Z,5.78
2022-08-09T03:53:05.337Z,5.00
2022-08-09T03:58:16.885Z,6.78
2022-08-09T04:03:46.286Z,6.28
2022-08-09T04:09:15.812Z,4.45
2022-08-09T04:14:52.891Z,7.03
2022-08-09T04:19:51.012Z,5.10
2022-08-09T04:24:52.857Z,5.32
2022-08-09T04:29:54.314Z,7.70
2022-08-09T04:34:57.400Z,6.85
2022-08-09T04:39:59.159Z,5.82
2022-08-09T04:45:04.484Z,7.53
2022-08-09T04:50:06.087Z,6.07
2022-08-09T04:55:13.333Z,7.78
2022-08-09T05:00:16.651Z,4.93
2022-08-09T05:05:31.393Z,6.78
2022-08-09T05:10:33.955Z,5.80
2022-08-09T05:15:43.207Z,7.03
2022-08-09T05:20:49.728Z,7.53
2022-08-09T05:25:52.698Z,6.45
2022-08-09T05:30:54.232Z,8.20
2022-08-09T05:35:57.324Z,7.15
2022-08-09T05:40:59.609Z,8.18
2022-08-09T05:46:01.823Z,9.73
2022-08-09T05:51:16.892Z,8.27
2022-08-09T05:56:27.083Z,11.88
2022-08-09T06:01:33.476Z,9.25
2022-08-09T06:06:35.741Z,8.90
2022-08-09T06:11:40.841Z,10.93
2022-08-09T06:16:55.254Z,8.73
2022-08-09T06:21:59.305Z,10.75
2022-08-09T06:27:00.836Z,7.00
2022-08-09T06:32:17.246Z,9.32
2022-08-09T06:37:23.826Z,8.75
2022-08-09T06:42:33.810Z,8.02
2022-08-09T06:47:48.544Z,9.45
2022-08-09T06:53:01.069Z,7.88
2022-08-09T06:58:04.391Z,8.73
2022-08-09T07:03:06.312Z,7.00
2022-08-09T07:08:07.786Z,7.60
2022-08-09T07:13:27.528Z,6.88
2022-08-09T07:18:31.328Z,7.60
2022-08-09T07:23:36.132Z,7.65
2022-08-09T07:28:37.894Z,4.82
2022-08-09T07:33:59.915Z,7.50
2022-08-09T07:39:02.228Z,5.22
2022-08-09T07:44:04.016Z,7.38
2022-08-09T07:49:05.712Z,5.57
2022-08-09T07:54:09.806Z,5.68
2022-08-09T07:59:12.587Z,6.97
2022-08-09T08:04:17.581Z,5.72
2022-08-09T08:09:39.980Z,4.75
2022-08-09T08:14:40.467Z,4.50
2022-08-09T08:19:42.510Z,5.35
2022-08-09T08:24:49.181Z,4.97
2022-08-09T08:29:53.216Z,4.53
2022-08-09T08:34:58.583Z,4.10
2022-08-09T08:40:00.569Z,6.75
2022-08-09T08:45:11.648Z,5.05
2022-08-09T08:50:18.254Z,3.42
2022-08-09T08:55:23.570Z,4.20
2022-08-09T09:00:30.005Z,5.05
2022-08-09T09:05:59.040Z,4.38
2022-08-09T09:10:57.567Z,5.53
2022-08-09T09:15:59.329Z,5.00
2022-08-09T09:21:00.776Z,4.80
2022-08-09T09:26:12.493Z,3.78
2022-08-09T09:31:17.502Z,4.45
2022-08-09T09:36:47.059Z,3.72
2022-08-09T09:41:55.408Z,4.17
2022-08-09T09:47:09.445Z,4.85
2022-08-09T09:52:35.800Z,5.55
2022-08-09T09:58:04.218Z,3.33
2022-08-09T10:02:55.726Z,4.28
2022-08-09T10:08:27.411Z,4.07
2022-08-09T10:13:43.365Z,3.67
2022-08-09T10:18:54.353Z,4.05
2022-08-09T10:23:57.044Z,2.83
2022-08-09T10:29:21.243Z,4.55
2022-08-09T10:34:33.464Z,6.07
2022-08-09T10:39:40.700Z,5.78
2022-08-09T10:44:54.858Z,5.70
2022-08-09T10:50:06.812Z,5.75
2022-08-09T10:55:20.890Z,6.20
2022-08-09T11:01:11.084Z,3.88
2022-08-09T11:06:23.191Z,6.25
2022-08-09T11:11:24.789Z,5.28
2022-08-09T11:16:35.097Z,3.88
2022-08-09T11:21:57.315Z,5.78
2022-08-09T11:28:04.036Z,6.28
2022-08-09T11:32:57.648Z,3.20
2022-08-09T11:38:14.217Z,3.78
2022-08-09T11:43:17.202Z,4.55
2022-08-09T11:48:25.942Z,4.25
2022-08-09T11:54:01.640Z,5.45
2022-08-09T11:58:59.109Z,4.18
2022-08-09T12:04:02.782Z,6.72
2022-08-09T12:09:20.788Z,6.18
2022-08-09T12:14:36.658Z,5.35
2022-08-09T12:19:40.200Z,7.47
2022-08-09T12:24:41.748Z,7.97
2022-08-09T12:30:01.541Z,11.73
2022-08-09T12:35:19.109Z,5.65
2022-08-09T12:40:23.156Z,6.60
2022-08-09T12:45:34.759Z,5.50
2022-08-09T12:50:41.285Z,7.57
2022-08-09T12:56:14.002Z,5.93
2022-08-09T13:01:05.915Z,6.25
2022-08-09T13:06:14.446Z,5.30
2022-08-09T13:11:27.984Z,3.47
2022-08-09T13:16:40.547Z,6.70
2022-08-09T13:22:36.527Z,5.30
2022-08-09T13:27:28.908Z,4.93
2022-08-09T13:32:48.463Z,6.15
2022-08-09T13:37:52.840Z,3.88
2022-08-09T13:42:54.994Z,3.22
2022-08-09T13:47:59.010Z,3.63
2022-08-09T13:53:00.770Z,2.20
2022-08-09T13:58:02.910Z,5.82
2022-08-09T14:03:58.142Z,4.40
2022-08-09T14:08:28.763Z,4.15
2022-08-09T14:14:22.255Z,4.53
2022-08-09T14:18:52.799Z,5.00
2022-08-09T14:23:56.949Z,3.15
2022-08-09T14:28:59.804Z,3.35
2022-08-09T14:34:04.186Z,3.42
2022-08-09T14:39:10.022Z,3.22
2022-08-09T14:44:11.623Z,3.20
2022-08-09T14:49:13.980Z,5.95
2022-08-09T14:54:22.270Z,5.40
2022-08-09T14:59:29.180Z,4.75
2022-08-09T15:04:32.211Z,4.47
2022-08-09T15:10:04.805Z,3.92
2022-08-09T15:14:55.757Z,2.53
2022-08-09T15:20:02.215Z,4.70
2022-08-09T15:25:04.397Z,2.38
2022-08-09T15:30:57.361Z,8.38
2022-08-09T15:35:40.367Z,3.97
2022-08-09T15:40:46.396Z,20.10
2022-08-09T15:45:51.953Z,29.95
2022-08-09T15:51:30.406Z,18.42
2022-08-09T15:56:31.310Z,15.13
2022-08-09T16:01:35.487Z,12.85
2022-08-09T16:06:37.701Z,11.50
2022-08-09T16:11:49.330Z,21.13
2022-08-09T16:16:53.360Z,11.18
2022-08-09T16:21:57.382Z,4.68
2022-08-09T16:26:59.077Z,5.25
2022-08-09T16:32:18.111Z,5.75
2022-08-09T16:37:54.729Z,4.18
2022-08-09T16:42:46.838Z,3.72
2022-08-09T16:48:41.796Z,4.97
2022-08-09T16:53:11.897Z,3.28
2022-08-09T16:58:14.607Z,3.10
2022-08-09T17:03:22.322Z,3.53
2022-08-09T17:08:42.701Z,4.45
2022-08-09T17:13:46.020Z,4.70
2022-08-09T17:19:03.400Z,2.97
2022-08-09T17:24:20.472Z,3.35
2022-08-09T17:29:31.667Z,2.55
2022-08-09T17:35:03.729Z,3.28
2022-08-09T17:40:00.836Z,5.10
2022-08-09T17:45:02.808Z,4.82
2022-08-09T17:50:16.888Z,3.45
2022-08-09T17:55:34.359Z,4.85
2022-08-09T18:00:48.269Z,3.25
2022-08-09T18:05:53.216Z,3.63
2022-08-09T18:11:01.725Z,3.20
2022-08-09T18:21:23.461Z,2.95
2022-08-09T18:26:25.668Z,2.97
2022-08-09T18:31:55.101Z,3.75
2022-08-09T18:36:56.139Z,2.83
2022-08-09T18:41:57.610Z,3.58
2022-08-09T18:47:08.274Z,1.67
2022-08-09T18:52:12.060Z,2.28
2022-08-09T18:57:15.499Z,4.80
2022-08-09T19:02:17.639Z,3.42
2022-08-09T19:07:19.162Z,1.42
2022-08-09T19:12:21.898Z,4.50
2022-08-09T19:17:24.139Z,2.80
2022-08-09T19:22:33.006Z,3.20
2022-08-09T19:27:34.973Z,3.70
2022-08-09T19:32:38.445Z,1.95
2022-08-09T19:37:54.101Z,4.10
2022-08-09T19:42:56.728Z,1.85
2022-08-09T19:47:58.824Z,3.72
2022-08-09T19:53:02.516Z,3.83
2022-08-09T19:58:06.788Z,3.72
2022-08-09T20:04:26.236Z,2.50
2022-08-09T20:08:40.050Z,4.07
2022-08-09T20:13:41.565Z,3.42
2022-08-09T20:19:41.918Z,2.97
2022-08-09T20:24:19.360Z,3.40
2022-08-09T20:29:37.919Z,3.17
2022-08-09T20:34:39.801Z,3.13
2022-08-09T20:40:15.743Z,3.00
2022-08-09T20:45:57.826Z,6.72
2022-08-09T20:50:47.930Z,5.20
2022-08-09T20:56:00.805Z,2.53
2022-08-09T21:01:32.303Z,5.13
2022-08-09T21:06:27.781Z,3.63
2022-08-09T21:16:55.035Z,2.00
2022-08-09T21:21:57.864Z,3.75
2022-08-09T21:26:59.838Z,2.35
2022-08-09T21:32:18.470Z,3.38
2022-08-09T21:37:20.519Z,1.73
2022-08-09T21:42:28.741Z,5.55
2022-08-09T21:47:30.369Z,4.70
2022-08-09T21:52:32.832Z,4.25
2022-08-09T21:57:38.382Z,4.07
2022-08-09T22:02:59.525Z,2.65
2022-08-09T22:08:01.427Z,2.45
2022-08-09T22:13:07.655Z,4.05
2022-08-09T22:18:13.140Z,4.05
2022-08-09T22:23:14.751Z,4.82
2022-08-09T22:28:21.070Z,4.47
2022-08-09T22:33:37.579Z,3.75
2022-08-09T22:38:50.400Z,5.43
2022-08-09T22:44:02.393Z,5.53
2022-08-09T22:49:10.415Z,3.15
2022-08-09T22:54:12.197Z,2.67
2022-08-09T22:59:55.833Z,3.95
2022-08-09T23:04:38.377Z,2.95
2022-08-09T23:09:39.999Z,3.60
2022-08-09T23:14:42.235Z,2.55
2022-08-09T23:20:00.965Z,5.00
2022-08-09T23:25:06.370Z,4.55
2022-08-09T23:30:08.060Z,3.58
2022-08-09T23:35:09.610Z,4.28
2022-08-09T23:40:11.292Z,3.75
2022-08-09T23:45:36.591Z,4.55
2022-08-09T23:50:34.189Z,4.65
2022-08-09T23:55:36.917Z,4.15
